Date,TemperatureHighF,TemperatureAvgF,TemperatureLowF,DewpointHighF,DewpointAvgF,DewpointLowF,HumidityHigh,HumidityAvg,HumidityLow,PressureMaxIn,PressureMinIn,WindSpeedMaxMPH,WindSpeedAvgMPH,GustSpeedMaxMPH,PrecipitationSumIn
2014-1-2,-6.0,-9.5,-12.0,-12.0,-15.8,-18.0,77,74,69,0.00,40.00,24,13,27,0.00
2014-1-3,25.0,10.2,-6.0,24.0,6.3,-12.0,96,84,76,0.00,40.00,33,19,39,0.05
2014-1-4,10.0,-2.7,-12.0,5.0,-12.7,-99.9,81,67,60,0.00,40.00,25,16,38,0.00
2014-1-5,-12.0,-18.5,-22.0,-21.0,-27.1,-31.0,66,64,59,0.00,40.00,24,16,29,0.00
2014-1-6,-10.0,-18.6,-25.0,-18.0,-27.3,-33.0,67,64,60,0.00,40.00,19,14,22,0.00
2014-1-7,-5.0,-9.7,-15.0,-12.0,-16.1,-20.0,78,72,67,0.00,40.00,9,5,12,0.00
2014-1-8,-3.0,-12.4,-20.0,-9.0,-18.1,-25.0,78,74,68,0.00,40.00,19,8,26,0.00
2014-1-9,21.0,11.8,-3.0,16.0,7.4,-8.0,86,82,77,0.00,40.00,24,19,31,0.00
2014-1-10,30.0,21.0,13.0,25.0,17.0,10.0,88,85,76,0.00,40.00,19,-30,27,0.00
2014-1-11,26.0,21.7,13.0,20.0,15.3,-99.9,93,81,74,0.00,40.00,17,11,21,0.00
2014-1-12,39.0,32.9,24.0,30.0,25.6,17.0,91,75,64,0.00,40.00,23,14,32,0.00
2014-1-13,27.0,18.8,15.0,20.0,13.0,9.0,89,78,59,0.00,40.00,19,10,24,0.03
2014-1-14,15.0,10.7,-4.0,12.0,5.3,-10.0,89,79,70,0.00,40.00,17,11,29,0.26
2014-1-15,40.0,13.2,-10.0,29.0,7.0,-16.0,85,76,59,0.00,40.00,33,19,42,0.03
2014-1-16,35.0,7.4,-1.0,30.0,-0.2,-11.0,86,71,56,0.00,40.00,32,23,42,0.26
2014-1-17,14.0,1.5,-13.0,10.0,-4.7,-19.0,87,75,60,0.00,40.00,17,-11,21,0.00
2014-1-18,36.0,18.7,9.0,27.0,12.3,-99.9,89,81,71,0.00,40.00,30,15,37,0.01
2014-1-19,36.0,22.3,8.0,27.0,18.1,3.0,91,84,70,0.00,40.00,27,11,34,0.00
2014-1-20,8.0,-6.5,-19.0,3.0,-13.2,-28.0,83,72,62,0.00,40.00,24,15,31,0.03
2014-1-21,11.0,-3.1,-21.0,6.0,-9.2,-28.0,79,74,69,0.00,40.00,22,13,27,0.03
2014-1-22,6.0,-5.7,-13.0,1.0,-12.2,-19.0,83,74,64,0.00,40.00,28,18,37,0.01
2014-1-26,12.0,-2.6,-13.0,7.0,-9.6,-21.0,77,71,63,0.00,40.00,36,24,152,0.01
2014-1-27,-10.0,-14.5,-19.0,-19.0,-22.8,-27.0,74,65,60,0.00,40.00,18,12,23,0.00
2014-1-28,2.0,-7.3,-17.0,-9.0,-16.7,-25.0,68,63,56,0.00,40.00,21,15,26,0.00
2014-1-29,22.0,8.1,-4.0,12.0,0.2,-10.0,78,69,62,0.00,40.00,21,12,29,0.00
2014-1-30,9.0,-2.9,-12.0,2.0,-10.7,-19.0,76,69,60,0.00,40.00,21,11,27,0.00
2014-1-31,8.0,-2.6,-16.0,0.0,-10.2,-23.0,81,70,63,0.00,40.00,17,11,21,0.00
2014-2-1,6.0,0.2,-10.0,0.0,-8.4,-99.9,84,71,61,0.00,40.00,18,9,26,0.00
2014-2-2,16.0,6.6,-8.0,6.0,-0.4,-12.0,80,72,62,0.00,40.00,15,10,18,0.00
2014-2-3,14.0,5.7,-9.0,4.0,-2.5,-17.0,77,68,57,0.00,40.00,19,12,24,0.00
2014-2-4,3.0,-6.1,-14.0,-8.0,-14.2,-20.0,72,67,57,0.00,40.00,12,9,16,0.00
2014-2-5,2.0,-3.0,-9.0,-7.0,-10.8,-16.0,73,68,63,0.00,40.00,15,10,20,0.00
2014-2-6,8.0,-1.2,-14.0,0.0,-9.0,-20.0,74,69,61,0.00,40.00,23,15,29,0.00
2014-2-7,8.0,0.9,-12.0,-4.0,-9.7,-19.0,77,61,53,0.00,40.00,23,12,32,0.00
2014-2-8,3.0,-7.1,-18.0,-4.0,-13.0,-23.0,79,75,70,0.00,40.00,16,7,18,0.00
2014-2-9,-3.0,-8.3,-13.0,-11.0,-16.0,-20.0,78,68,62,0.00,40.00,13,10,16,0.00
2014-2-10,0.0,-10.2,-17.0,-9.0,-17.4,-24.0,78,70,60,0.00,40.00,9,6,12,0.00
2014-2-11,22.0,2.2,-14.0,15.0,-3.6,-19.0,84,76,70,0.00,40.00,29,17,34,0.00
2014-2-12,11.0,1.6,-5.0,6.0,-5.5,-12.0,82,72,56,0.00,40.00,17,10,26,0.01
2014-2-13,14.0,3.3,-4.0,12.0,-2.2,-11.0,89,77,68,0.00,40.00,28,16,39,0.02
2014-2-14,8.0,-0.5,-11.0,-1.0,-8.8,-19.0,81,67,53,0.00,40.00,16,8,20,0.00
2014-2-15,9.0,4.4,-6.0,3.0,-4.0,-99.9,80,74,73,0.00,40.00,21,14,29,0.00
2014-2-16,17.0,4.6,-9.0,13.0,-0.2,-14.0,88,80,74,0.00,40.00,24,12,30,0.00
2014-2-17,33.0,24.5,17.0,24.0,19.1,13.0,89,79,67,0.00,40.00,20,14,24,0.02
2014-2-18,35.0,29.5,20.0,24.0,21.7,14.0,88,73,62,0.00,40.00,20,-9,24,0.00
2014-2-19,28.0,22.2,17.0,22.0,16.9,11.0,89,80,72,0.00,40.00,15,8,21,0.00
2014-2-20,22.0,14.2,3.0,19.0,9.6,-3.0,93,82,70,0.00,40.00,21,12,26,0.00
2014-2-21,9.0,2.9,-2.0,2.0,-3.8,-9.0,76,73,70,0.00,40.00,27,20,34,0.00
2014-2-22,8.0,2.6,-4.0,0.0,-7.1,-99.9,72,68,67,0.00,40.00,24,18,29,0.00
2014-2-23,9.0,5.0,-2.0,0.0,-3.3,-11.0,72,68,65,0.00,40.00,23,18,27,0.00
2014-2-24,1.0,-4.7,-12.0,-7.0,-13.3,-19.0,68,65,62,0.00,40.00,20,13,23,0.00
2014-2-25,-3.0,-6.4,-11.0,-12.0,-15.5,-19.0,67,64,57,0.00,40.00,21,15,24,0.00
2014-2-26,11.0,1.6,-16.0,3.0,-7.2,-23.0,82,66,61,0.00,40.00,30,21,40,0.13
2014-2-27,-2.0,-12.4,-27.0,-11.0,-20.6,-33.0,72,66,56,0.00,40.00,14,8,17,0.00
2014-2-28,4.0,-3.9,-14.0,-4.0,-11.5,-22.0,75,69,63,0.00,40.00,22,13,30,0.00
2014-3-1,-12.0,-16.9,-24.0,-22.0,-28.6,-99.9,67,59,50,0.00,40.00,17,10,21,0.00
2014-3-2,-1.0,-11.1,-19.0,-11.0,-20.8,-28.0,74,61,57,0.00,40.00,19,12,22,0.00
2014-3-3,5.0,-3.6,-15.0,0.0,-9.3,-21.0,84,76,67,0.00,40.00,10,6,12,0.04
2014-3-4,8.0,-0.3,-10.0,0.0,-5.9,-14.0,84,77,66,0.00,40.00,9,6,11,0.00
2014-3-5,21.0,11.6,-1.0,17.0,5.4,-8.0,83,76,69,0.00,40.00,30,15,37,0.00
2014-3-6,34.0,24.2,16.0,31.0,20.2,13.0,95,85,76,0.00,40.00,26,14,30,0.03
2014-3-7,22.0,14.0,4.0,19.0,7.9,-2.0,88,76,67,0.00,40.00,24,16,31,0.00
2014-3-8,28.0,14.7,-3.0,23.0,6.9,-99.9,85,76,64,0.00,40.00,17,10,23,0.00
2014-3-9,42.0,35.4,27.0,33.0,29.6,23.0,93,80,67,0.00,40.00,19,10,22,0.00
2014-3-10,45.0,39.7,34.0,34.0,32.2,30.0,87,74,60,0.00,40.00,22,14,27,0.00
2014-3-11,36.0,25.3,14.0,31.0,19.2,7.0,87,78,68,0.00,40.00,18,12,28,0.00
2014-3-12,32.0,20.4,12.0,28.0,13.4,-1.0,89,75,55,0.00,40.00,17,10,22,0.00
2014-3-13,49.0,38.6,28.0,37.0,31.0,24.0,89,74,57,0.00,40.00,22,14,30,0.00
2014-3-14,37.0,24.7,11.0,33.0,18.6,5.0,91,78,64,0.00,40.00,23,16,33,0.00
2014-3-15,15.0,8.3,1.0,5.0,-1.8,-99.9,81,68,51,0.00,40.00,19,12,24,0.00
2014-3-16,31.0,15.0,0.0,22.0,5.5,-5.0,80,66,50,0.00,40.00,30,14,42,0.00
2014-3-17,35.0,30.4,27.0,28.0,22.1,-99.9,91,78,70,0.00,40.00,17,8,23,0.00
2014-3-18,32.0,28.4,26.0,25.0,23.3,22.0,89,81,72,0.00,40.00,14,10,20,0.00
2014-3-19,42.0,30.4,21.0,31.0,24.7,19.0,97,80,50,0.00,40.00,24,6,34,0.04
2014-3-20,40.0,31.8,24.0,32.0,27.6,22.0,96,85,65,0.00,40.00,14,7,18,0.14
2014-3-21,33.0,19.3,9.0,32.0,12.8,-99.9,99,82,62,0.00,40.00,34,20,45,0.16
2014-3-22,16.0,9.6,4.0,6.0,-1.7,-99.9,73,63,56,0.00,40.00,14,10,19,0.00
2014-3-23,21.0,11.3,2.0,10.0,2.3,-4.0,83,67,52,0.00,40.00,12,6,17,0.00
2014-3-24,26.0,14.8,6.0,15.0,6.5,1.0,84,70,50,0.00,40.00,26,13,32,0.00
2014-3-25,23.0,13.4,5.0,7.0,2.7,-2.0,84,63,42,0.00,40.00,15,10,22,0.00
2014-3-26,36.0,23.8,9.0,24.0,15.0,4.0,84,69,55,0.00,40.00,17,10,24,0.00
2014-3-27,29.0,24.3,17.0,24.0,16.5,7.0,91,72,50,0.00,40.00,25,18,34,0.00
2014-3-28,29.0,20.4,10.0,18.0,8.0,2.0,73,59,42,0.00,40.00,12,6,17,0.00
2014-3-29,45.0,33.2,26.0,32.0,19.4,-99.9,78,60,48,0.00,40.00,30,20,38,0.00
2014-3-30,41.0,35.5,22.0,33.0,29.1,13.0,91,77,63,0.00,40.00,29,16,38,0.00
2014-3-31,22.0,14.6,10.0,15.0,11.2,7.0,89,86,68,0.00,40.00,35,-278,52,1.77
2014-4-1,25.0,15.0,8.0,12.0,3.2,-99.9,91,64,54,0.00,40.00,24,-50,33,0.00
2014-4-2,26.0,12.3,-5.0,13.0,3.5,-9.0,87,69,46,0.00,40.00,8,4,10,0.00
2014-4-3,34.0,26.4,20.0,29.0,22.5,12.0,93,86,65,0.00,40.00,12,7,16,0.11
2014-4-4,35.0,29.1,26.0,27.0,24.7,23.0,89,83,70,0.00,40.00,17,12,21,0.00
2014-4-5,35.0,27.4,22.0,29.0,23.4,19.0,88,85,78,0.00,40.00,16,13,19,0.00
2014-4-6,52.0,35.2,26.0,43.0,31.0,25.0,95,86,72,0.00,40.00,7,4,9,0.00
2014-4-7,42.0,38.2,35.0,38.0,33.8,31.0,86,83,78,0.00,40.00,8,7,9,0.00
2014-4-8,51.0,41.0,33.0,38.0,33.7,29.0,88,77,61,0.00,40.00,14,10,16,0.00
2014-4-9,66.0,51.0,41.0,48.0,39.8,33.0,75,66,52,0.00,40.00,26,17,32,0.00
2014-4-10,43.0,40.7,39.0,30.0,28.7,28.0,64,61,59,0.00,40.00,18,17,24,0.00
2014-4-11,49.0,42.2,35.0,38.0,32.0,28.0,77,68,53,0.00,40.00,11,8,16,0.00
2014-4-12,47.0,39.9,34.0,45.0,35.9,29.0,91,85,78,0.00,40.00,14,8,20,0.00
2014-4-13,33.0,28.1,24.0,27.0,18.3,12.0,80,67,48,0.00,40.00,22,19,30,0.00
2014-4-14,26.0,22.1,16.0,16.0,9.6,3.0,81,58,46,0.00,40.00,18,11,27,0.00
2014-4-15,29.0,23.2,15.0,15.0,9.9,6.0,75,57,50,0.00,40.00,12,7,17,0.00
2014-4-16,40.0,31.3,27.0,19.0,12.6,10.0,71,46,29,0.00,40.00,19,14,29,0.00
2014-4-17,41.0,28.2,22.0,19.0,16.0,11.0,80,63,30,0.00,40.00,14,10,18,0.00
2014-4-18,48.0,40.7,29.0,32.0,25.7,21.0,72,55,43,0.00,40.00,23,16,32,0.00
2014-4-19,61.0,51.3,41.0,40.0,36.3,31.0,84,58,42,0.00,40.00,26,18,40,0.00
2014-4-20,55.0,40.7,31.0,38.0,33.2,29.0,93,77,53,0.00,40.00,7,5,10,0.00
2014-4-21,54.0,46.3,38.0,36.0,34.9,34.0,83,66,48,0.00,40.00,21,13,28,0.00
2014-4-22,60.0,46.6,32.0,38.0,33.2,31.0,96,65,36,0.00,40.00,10,6,15,0.00
2014-4-23,45.0,41.4,38.0,41.0,36.1,29.0,95,82,57,0.00,40.00,20,16,29,0.04
2014-4-24,44.0,42.2,40.0,42.0,40.4,39.0,99,93,86,0.00,40.00,9,5,14,0.00
2014-4-25,47.0,41.6,36.0,40.0,36.1,33.0,100,82,63,0.00,40.00,11,7,16,0.00
2014-4-26,52.0,41.2,32.0,39.0,31.1,-99.9,92,72,51,0.00,40.00,21,11,27,0.00
2014-4-27,44.0,39.8,36.0,37.0,32.3,29.0,93,74,63,0.00,40.00,24,17,32,0.12
2014-4-28,42.0,39.1,36.0,40.0,37.0,34.0,99,92,85,0.00,40.00,23,14,31,0.86
2014-4-29,55.0,44.4,35.0,36.0,30.4,26.0,91,60,34,0.00,40.00,26,16,37,0.00
2014-4-30,41.0,39.0,36.0,39.0,35.6,31.0,95,87,71,0.00,40.00,25,16,32,0.17
2014-5-1,58.0,46.2,38.0,43.0,36.6,34.0,93,71,41,0.00,40.00,24,15,34,0.00
2014-5-2,59.0,50.4,42.0,41.0,36.8,32.0,86,62,38,0.00,40.00,26,16,34,0.00
2014-5-3,45.0,40.3,34.0,39.0,28.6,-99.9,92,68,47,0.00,40.00,21,12,29,0.00
2014-5-4,47.0,38.9,30.0,35.0,28.8,25.0,94,69,41,0.00,40.00,12,6,18,0.10
2014-5-5,54.0,43.3,36.0,40.0,36.9,35.0,96,80,55,0.00,40.00,9,6,16,0.01
2014-5-6,56.0,48.2,43.0,47.0,42.8,39.0,97,82,65,0.00,40.00,15,9,20,0.08
2014-5-7,49.0,48.5,48.0,44.0,44.0,44.0,86,86,85,0.00,40.00,10,10,12,0.00
2014-5-13,48.0,43.8,40.0,38.0,35.3,33.0,82,72,62,0.00,40.00,14,9,18,0.00
2014-5-14,44.0,39.1,33.0,33.0,30.2,27.0,88,71,55,0.00,40.00,18,10,21,0.00
2014-5-15,53.0,41.7,30.0,33.0,28.5,25.0,94,63,36,0.00,40.00,12,6,21,0.00
2014-5-16,61.0,47.9,34.0,41.0,30.4,27.0,85,55,29,0.00,40.00,12,7,17,0.00
2014-5-17,69.0,54.0,39.0,45.0,33.3,-99.9,85,51,28,0.00,40.00,23,10,30,0.00
2014-5-18,73.0,60.5,48.0,50.0,40.1,31.0,75,50,21,0.00,40.00,18,7,22,0.00
2014-5-19,61.0,53.4,51.0,58.0,42.9,-99.9,95,80,66,0.00,40.00,14,9,22,0.31
2014-5-20,62.0,54.5,50.0,55.0,44.2,-99.9,95,72,54,0.00,40.00,26,16,32,0.00
2014-5-21,60.0,52.4,45.0,46.0,44.3,42.0,91,74,57,0.00,40.00,17,12,23,0.00
2014-5-22,74.0,54.9,38.0,45.0,38.4,-99.9,98,62,29,0.00,40.00,8,4,14,0.00
2014-5-23,84.0,67.1,50.0,55.0,46.5,38.0,72,49,30,0.00,40.00,27,15,32,0.00
2014-5-24,90.0,74.2,60.0,60.0,52.3,-99.9,77,51,30,0.00,40.00,24,15,30,0.00
2014-5-25,85.0,69.4,60.0,67.0,57.1,48.0,97,67,40,0.00,40.00,23,10,30,0.01
2014-5-26,75.0,62.9,52.0,58.0,54.2,49.0,93,75,47,0.00,40.00,15,8,152,0.00
2014-5-27,86.0,70.7,54.0,62.0,55.8,52.0,93,63,36,0.00,40.00,10,4,12,0.00
2014-5-28,86.0,72.9,63.0,60.0,56.6,51.0,84,60,33,0.00,40.00,13,7,18,0.00
2014-5-29,90.0,76.6,62.0,60.0,52.2,43.0,84,48,20,0.00,40.00,28,14,33,0.00
2014-5-30,82.0,69.6,65.0,66.0,57.3,43.0,100,69,33,0.00,40.00,15,8,18,0.34
2014-5-31,74.0,65.0,63.0,67.0,57.0,-99.9,100,84,69,0.00,40.00,9,5,11,0.06
2014-6-1,79.0,67.6,59.0,65.0,61.0,57.0,100,81,52,0.00,40.00,16,8,25,0.04
2014-6-2,66.0,59.5,55.0,61.0,55.2,52.0,99,86,71,0.00,40.00,21,12,27,0.29
2014-6-3,75.0,64.7,53.0,59.0,54.2,49.0,93,71,45,0.00,40.00,12,7,17,0.00
2014-6-4,79.0,67.6,51.0,56.0,53.2,50.0,96,64,39,0.00,40.00,12,5,17,0.00
2014-6-5,78.0,68.2,60.0,62.0,57.7,53.0,97,72,44,0.00,40.00,18,12,34,0.28
2014-6-6,66.0,60.1,54.0,55.0,44.5,39.0,75,57,41,0.00,40.00,18,11,26,0.00
2014-6-7,70.0,59.0,53.0,48.0,35.8,-99.9,79,49,28,0.00,40.00,16,7,21,0.00
2014-6-8,72.0,58.8,46.0,51.0,45.2,40.0,87,63,34,0.00,40.00,16,7,21,0.00
2014-6-9,76.0,63.8,50.0,51.0,47.4,42.0,93,60,31,0.00,40.00,10,7,19,0.00
2014-6-10,77.0,67.6,55.0,56.0,50.8,47.0,76,55,40,0.00,40.00,18,10,26,0.00
2014-6-11,65.0,59.0,52.0,58.0,55.8,48.0,99,89,72,0.00,40.00,13,7,21,0.54
2014-6-12,71.0,58.9,49.0,49.0,44.0,39.0,88,60,35,0.00,40.00,22,14,34,0.01
2014-6-13,71.0,61.6,49.0,52.0,47.8,44.0,89,62,42,0.00,40.00,16,7,21,0.00
2014-6-14,66.0,59.1,57.0,62.0,50.7,-99.9,99,85,70,0.00,40.00,19,14,27,0.29
2014-6-15,68.0,61.5,58.0,61.0,56.9,52.0,98,86,59,0.00,40.00,20,12,27,0.10
2014-6-16,74.0,64.8,55.0,60.0,54.8,51.0,88,71,50,0.00,40.00,15,9,21,0.00
2014-6-17,75.0,66.0,55.0,58.0,56.0,54.0,95,72,52,0.00,40.00,19,10,23,0.00
2014-6-18,77.0,67.4,55.0,63.0,58.2,53.0,93,73,60,0.00,40.00,21,12,27,0.00
2014-6-19,69.0,63.1,55.0,66.0,60.4,53.0,99,91,65,0.00,40.00,27,11,34,1.25
2014-6-20,75.0,64.4,53.0,61.0,56.4,52.0,97,77,51,0.00,40.00,14,8,20,0.00
2014-6-21,86.0,68.0,57.0,66.0,54.9,-99.9,91,70,36,0.00,40.00,17,9,30,0.03
2014-6-22,76.0,71.0,64.0,62.0,59.4,57.0,87,68,52,0.00,40.00,19,10,26,0.00
2014-6-23,77.0,68.0,59.0,62.0,59.0,57.0,93,74,51,0.00,40.00,12,8,20,0.00
2014-6-24,63.0,60.0,58.0,61.0,57.7,56.0,97,92,87,0.00,40.00,14,12,21,0.04
2014-6-25,71.0,63.7,57.0,62.0,58.9,56.0,99,86,72,0.00,40.00,11,7,16,0.00
2014-6-26,76.0,64.6,58.0,68.0,61.2,57.0,98,89,75,0.00,40.00,16,8,19,0.01
2014-6-27,81.0,71.0,66.0,72.0,67.6,65.0,99,89,73,0.00,40.00,18,12,26,0.06
2014-6-28,77.0,67.2,65.0,72.0,57.5,-99.9,100,82,68,0.00,40.00,32,16,45,0.00
2014-6-29,74.0,69.4,64.0,60.0,58.2,57.0,86,68,56,0.00,40.00,26,20,37,0.00
2014-6-30,69.0,66.1,62.0,63.0,57.9,54.0,91,76,63,0.00,40.00,29,20,40,0.03
2014-7-1,64.0,56.7,52.0,61.0,52.3,48.0,98,85,72,0.00,40.00,20,14,39,0.12
2014-7-2,71.0,61.7,51.0,56.0,48.7,44.0,91,64,40,0.00,40.00,11,7,16,0.00
2014-7-3,75.0,64.4,50.0,55.0,50.6,48.0,96,65,39,0.00,40.00,6,3,12,0.00
2014-7-4,81.0,68.6,55.0,69.0,59.7,50.0,86,74,66,0.00,40.00,22,13,28,0.00
2014-7-5,90.0,75.0,68.0,76.0,60.6,-99.9,87,69,45,0.00,40.00,19,10,26,0.00
2014-7-6,82.0,75.7,68.0,67.0,62.2,57.0,83,64,42,0.00,40.00,17,11,24,0.00
2014-7-7,77.0,71.1,64.0,63.0,60.5,56.0,87,70,52,0.00,40.00,19,12,32,0.00
2014-7-8,74.0,65.8,58.0,58.0,53.2,49.0,87,66,43,0.00,40.00,17,11,26,0.01
2014-7-9,75.0,64.5,56.0,58.0,52.1,47.0,94,67,40,0.00,40.00,12,6,17,0.00
2014-7-10,78.0,67.0,55.0,66.0,57.4,50.0,84,73,56,0.00,40.00,15,9,20,0.00
2014-7-11,84.0,73.1,59.0,68.0,59.7,51.0,100,68,32,0.00,40.00,16,8,23,0.00
2014-7-12,80.0,63.7,56.0,59.0,54.0,53.0,94,70,41,0.00,40.00,20,9,32,0.45
2014-7-13,71.0,61.6,53.0,55.0,49.3,45.0,98,67,41,0.00,40.00,22,14,31,0.00
2014-7-14,67.0,58.2,49.0,53.0,49.1,45.0,90,72,55,0.00,40.00,21,15,32,0.00
2014-7-15,74.0,63.1,53.0,54.0,51.8,50.0,89,69,45,0.00,40.00,14,7,20,0.00
2014-7-16,77.0,63.7,47.0,59.0,53.7,46.0,97,73,47,0.00,40.00,7,2,13,0.00
2014-7-17,80.0,65.1,53.0,61.0,56.2,52.0,95,76,43,0.00,40.00,12,7,17,0.00
2014-7-18,83.0,71.2,60.0,67.0,61.2,58.0,90,72,51,0.00,40.00,26,14,35,0.18
2014-7-19,78.0,68.1,59.0,61.0,57.8,55.0,92,71,48,0.00,40.00,10,6,16,0.00
2014-7-20,92.0,76.5,63.0,73.0,65.3,58.0,94,72,38,0.00,40.00,14,9,21,0.00
2014-7-21,88.0,74.7,63.0,76.0,69.4,62.0,100,84,66,0.00,40.00,35,14,52,3.17
2014-7-22,77.0,69.8,63.0,65.0,59.5,56.0,98,71,51,0.00,40.00,12,8,19,0.00
2014-7-23,75.0,67.4,59.0,62.0,57.9,55.0,96,73,54,0.00,40.00,9,4,12,0.00
2014-7-24,76.0,65.8,58.0,64.0,60.2,56.0,98,83,63,0.00,40.00,20,7,29,0.00
2014-7-25,80.0,72.8,64.0,69.0,61.2,54.0,93,69,41,0.00,40.00,14,8,21,0.00
2014-7-26,73.0,63.7,56.0,60.0,54.1,54.0,95,68,52,0.00,40.00,21,13,26,0.00
2014-7-27,68.0,62.8,60.0,58.0,56.8,54.0,90,80,66,0.00,40.00,21,13,29,0.00
2014-7-28,74.0,66.3,60.0,57.0,55.0,54.0,92,69,49,0.00,40.00,8,6,15,0.00
2014-7-29,78.0,66.0,54.0,58.0,54.8,52.0,97,70,44,0.00,40.00,9,5,12,0.00
2014-7-30,80.0,67.7,54.0,62.0,56.5,52.0,99,71,40,0.00,40.00,10,5,12,0.00
2014-7-31,83.0,65.2,58.0,66.0,57.2,56.0,95,77,47,0.00,40.00,7,4,9,0.00
2014-8-1,83.0,71.4,62.0,64.0,60.9,58.0,97,72,44,0.00,40.00,7,4,13,0.00
2014-8-2,82.0,70.2,59.0,66.0,60.9,56.0,94,74,44,0.00,40.00,15,4,30,0.07
2014-8-3,78.0,67.8,60.0,63.0,58.3,51.0,93,74,38,0.00,40.00,9,6,15,0.00
2014-8-4,79.0,66.1,51.0,59.0,55.1,51.0,98,72,41,0.00,40.00,6,3,10,0.00
2014-8-5,79.0,67.9,55.0,63.0,57.9,53.0,97,73,46,0.00,40.00,6,4,11,0.00
2014-8-6,81.0,69.6,56.0,67.0,61.3,56.0,99,77,51,0.00,40.00,9,4,16,0.00
2014-8-7,81.0,69.4,59.0,64.0,61.0,58.0,99,78,50,0.00,40.00,15,7,21,0.00
2014-8-8,83.0,70.5,60.0,69.0,62.7,58.0,96,78,51,0.00,40.00,12,7,16,0.00
2014-8-9,79.0,70.4,61.0,69.0,63.6,60.0,99,81,56,0.00,40.00,11,6,18,0.00
2014-8-10,75.0,69.1,63.0,66.0,59.9,54.0,98,74,49,0.00,40.00,15,8,21,0.00
2014-8-11,76.0,64.9,55.0,56.0,53.0,49.0,88,67,41,0.00,40.00,11,7,19,0.00
2014-8-12,83.0,71.6,53.0,63.0,56.2,50.0,91,61,39,0.00,40.00,14,7,17,0.00
2014-8-13,81.0,69.7,58.0,61.0,57.8,55.0,88,67,44,0.00,40.00,9,5,13,0.00
2014-8-14,81.0,70.1,59.0,66.0,59.9,56.0,91,71,48,0.00,40.00,15,6,21,0.00
2014-8-15,86.0,75.8,63.0,71.0,67.2,62.0,96,76,56,0.00,40.00,11,5,14,0.00
2014-8-16,76.0,69.8,68.0,70.0,64.9,61.0,96,82,71,0.00,40.00,14,8,19,0.00
2014-8-17,80.0,68.7,64.0,69.0,64.0,60.0,99,85,68,0.00,40.00,13,6,19,0.04
2014-8-18,76.0,67.5,62.0,68.0,64.3,61.0,99,90,66,0.00,40.00,11,5,15,0.16
2014-8-19,83.0,70.5,60.0,68.0,63.8,59.0,98,81,54,0.00,40.00,7,4,14,0.00
2014-8-20,84.0,73.2,61.0,68.0,65.3,60.0,98,78,55,0.00,40.00,14,8,20,0.00
2014-8-21,79.0,71.1,67.0,71.0,67.4,65.0,99,88,71,0.00,40.00,10,5,16,0.00
2014-8-22,71.0,67.4,65.0,67.0,64.3,61.0,98,90,78,0.00,40.00,12,9,17,0.00
2014-8-23,74.0,61.9,58.0,68.0,60.5,58.0,100,92,83,0.00,40.00,14,10,20,0.80
2014-8-24,80.0,69.2,61.0,69.0,63.5,52.0,100,84,55,0.00,40.00,21,12,31,0.28
2014-8-25,61.0,57.2,51.0,53.0,49.8,47.0,89,76,61,0.00,40.00,21,14,36,0.00
2014-8-26,67.0,56.5,46.0,56.0,49.3,45.0,97,78,56,0.00,40.00,8,4,10,0.00
2014-8-27,75.0,61.1,48.0,59.0,53.0,47.0,99,78,42,0.00,40.00,10,5,16,0.00
2014-8-28,76.0,66.6,58.0,66.0,62.2,57.0,96,87,71,0.00,40.00,16,10,21,0.00
2014-8-29,71.0,64.9,58.0,67.0,62.1,56.0,96,90,77,0.00,40.00,21,8,30,0.00
2014-8-30,72.0,59.7,49.0,58.0,51.0,47.0,94,73,42,0.00,40.00,7,5,12,0.00
2014-8-31,72.0,63.7,56.0,64.0,59.7,56.0,99,88,66,0.00,40.00,16,7,21,0.10
2014-9-1,72.0,61.0,54.0,61.0,55.2,51.0,96,82,56,0.00,40.00,12,5,16,0.01
2014-9-2,79.0,61.0,51.0,57.0,52.4,48.0,90,76,42,0.00,40.00,17,8,24,0.00
2014-9-3,80.0,65.3,49.0,59.0,54.4,49.0,99,71,44,0.00,40.00,11,6,15,0.00
2014-9-4,72.0,62.9,54.0,65.0,56.3,49.0,97,80,54,0.00,40.00,25,12,32,0.03
2014-9-5,72.0,59.5,47.0,51.0,48.0,45.0,90,68,41,0.00,40.00,19,11,25,0.00
2014-9-6,79.0,61.1,47.0,53.0,47.5,45.0,95,64,31,0.00,40.00,18,9,24,0.00
2014-9-7,82.0,64.5,49.0,61.0,54.4,48.0,98,72,44,0.00,40.00,18,7,24,0.00
2014-9-8,85.0,65.8,54.0,62.0,56.4,47.0,91,74,37,0.00,40.00,20,14,27,0.00
2014-9-9,54.0,48.9,45.0,47.0,44.3,41.0,95,84,72,0.00,40.00,21,14,27,0.13
2014-9-10,56.0,48.8,44.0,41.0,35.9,31.0,85,62,39,0.00,40.00,22,15,29,0.00
2014-9-11,54.0,46.8,40.0,39.0,35.9,31.0,84,67,43,0.00,40.00,14,8,22,0.00
2014-9-12,56.0,46.4,37.0,39.0,33.0,26.0,88,63,33,0.00,40.00,14,7,19,0.00
2014-9-13,64.0,50.6,37.0,47.0,38.2,33.0,87,63,39,0.00,40.00,26,13,34,0.00
2014-9-14,57.0,50.2,42.0,44.0,41.8,37.0,92,74,47,0.00,40.00,16,9,21,0.00
2014-9-15,67.0,51.8,33.0,44.0,38.5,31.0,96,65,34,0.00,40.00,18,8,25,0.00
2014-9-16,74.0,58.6,47.0,46.0,41.2,38.0,78,56,29,0.00,40.00,15,9,19,0.00
2014-9-17,64.0,52.7,44.0,50.0,45.7,41.0,90,77,56,0.00,40.00,15,8,21,0.00
2014-9-18,72.0,53.7,36.0,61.0,48.4,35.0,99,84,58,0.00,40.00,23,10,27,0.00
2014-9-19,84.0,69.7,61.0,64.0,58.7,52.0,86,70,34,0.00,40.00,27,15,35,0.00
2014-9-20,67.0,55.9,48.0,56.0,50.5,47.0,98,81,54,0.00,40.00,24,9,45,0.01
2014-9-21,67.0,56.3,49.0,52.0,49.3,47.0,94,79,52,0.00,40.00,11,7,14,0.00
2014-9-22,78.0,61.6,47.0,50.0,45.4,42.0,92,63,28,0.00,40.00,13,9,18,0.00
2014-9-23,79.0,62.1,50.0,58.0,51.5,47.0,90,70,40,0.00,40.00,25,12,31,0.00
2014-9-24,69.0,62.4,56.0,60.0,57.8,52.0,95,85,72,0.00,40.00,11,9,16,0.00
2014-9-25,83.0,65.2,54.0,65.0,59.7,53.0,99,84,52,0.00,40.00,13,8,17,0.00
2014-9-26,84.0,71.0,61.0,63.0,60.6,58.0,95,72,47,0.00,40.00,27,14,34,0.00
2014-9-27,87.0,70.3,61.0,60.0,56.4,55.0,91,63,33,0.00,40.00,17,11,22,0.00
2014-9-28,64.0,53.2,48.0,55.0,49.6,46.0,99,88,71,0.00,40.00,22,13,30,0.18
2014-9-29,57.0,48.8,44.0,48.0,45.5,44.0,99,89,69,0.00,40.00,12,8,17,0.04
2014-9-30,60.0,49.7,40.0,51.0,45.2,40.0,99,85,59,0.00,40.00,19,11,27,0.06
2014-10-1,65.0,60.7,57.0,57.0,53.5,50.0,88,77,66,0.00,40.00,25,16,32,0.00
2014-10-2,67.0,52.9,46.0,50.0,45.3,38.0,93,77,35,0.00,40.00,24,10,36,0.00
2014-10-3,46.0,41.2,37.0,39.0,29.2,24.0,82,63,46,0.00,40.00,27,22,39,0.01
2014-10-4,44.0,37.2,32.0,30.0,26.0,25.0,80,62,49,0.00,40.00,19,11,25,0.00
2014-10-5,53.0,43.8,38.0,31.0,25.9,16.0,71,52,23,0.00,40.00,24,13,35,0.00
2014-10-6,56.0,45.6,31.0,39.0,28.8,20.0,91,56,26,0.00,40.00,29,15,37,0.00
2014-10-7,55.0,45.7,32.0,37.0,29.1,16.0,79,55,21,0.00,40.00,26,14,36,0.00
2014-10-8,51.0,39.3,26.0,30.0,27.0,23.0,88,64,37,0.00,40.00,13,7,23,0.00
2014-10-9,51.0,38.2,27.0,32.0,27.7,23.0,90,68,40,0.00,40.00,14,6,17,0.00
2014-10-10,58.0,40.4,23.0,35.0,28.0,19.0,91,65,36,0.00,40.00,8,5,12,0.00
2014-10-11,65.0,50.4,37.0,37.0,30.9,27.0,67,47,29,0.00,40.00,31,17,39,0.00
2014-10-12,58.0,50.9,46.0,49.0,41.3,37.0,99,71,51,0.00,40.00,21,10,27,0.31
2014-10-13,67.0,51.7,42.0,49.0,42.3,37.0,100,73,36,0.00,40.00,10,6,16,0.00
2014-10-14,66.0,49.8,35.0,44.0,37.2,32.0,92,65,35,0.00,40.00,11,5,14,0.00
2014-10-15,69.0,54.7,43.0,38.0,36.3,35.0,73,53,30,0.00,40.00,22,13,30,0.00
2014-10-16,62.0,54.4,48.0,46.0,40.0,35.0,86,59,46,0.00,40.00,23,16,32,0.04
2014-10-17,48.0,43.7,42.0,43.0,38.2,37.0,86,81,74,0.00,40.00,26,18,37,0.00
2014-10-18,44.0,41.3,40.0,38.0,36.6,36.0,88,82,78,0.00,40.00,18,9,24,0.00
2014-10-19,67.0,52.0,36.0,44.0,39.7,35.0,94,66,38,0.00,40.00,19,11,24,0.00
2014-10-20,60.0,47.6,38.0,43.0,39.3,36.0,93,74,54,0.00,40.00,9,5,11,0.00
2014-10-21,67.0,50.7,37.0,43.0,39.5,35.0,94,68,41,0.00,40.00,29,16,39,0.00
2014-10-22,64.0,56.1,49.0,54.0,46.0,42.0,94,69,54,0.00,40.00,28,18,37,0.00
2014-10-23,70.0,54.6,45.0,47.0,40.9,36.0,94,64,30,0.00,40.00,16,10,21,0.00
2014-10-24,72.0,58.0,42.0,44.0,37.1,32.0,74,48,26,0.00,40.00,28,14,40,0.00
2014-10-25,60.0,49.1,34.0,35.0,29.4,23.0,69,49,25,0.00,40.00,20,12,26,0.00
2014-10-26,62.0,46.0,30.0,31.0,26.1,23.0,81,50,22,0.00,40.00,25,11,37,0.00
2014-10-27,52.0,46.9,43.0,40.0,36.3,32.0,84,67,51,0.00,40.00,45,9,152,0.00
2014-10-28,44.0,38.3,36.0,37.0,30.3,26.0,91,73,62,0.00,40.00,28,19,37,0.00
2014-10-29,41.0,37.5,35.0,31.0,27.8,26.0,76,68,58,0.00,40.00,14,8,18,0.00
2014-10-30,38.0,33.3,23.0,33.0,23.8,14.0,92,69,43,0.00,40.00,23,14,32,0.00
2014-10-31,38.0,27.3,13.0,21.0,17.6,10.0,85,68,48,0.00,40.00,17,9,24,0.00
2014-11-1,48.0,36.5,29.0,22.0,19.2,18.0,63,49,33,0.00,40.00,27,21,35,0.00
2014-11-2,53.0,44.0,35.0,30.0,27.0,22.0,68,51,39,0.00,40.00,19,14,25,0.00
2014-11-3,49.0,43.5,37.0,36.0,32.1,28.0,74,64,54,0.00,40.00,32,13,38,0.00
2014-11-4,43.0,38.3,28.0,31.0,27.2,22.0,82,64,50,0.00,40.00,24,13,30,0.00
2014-11-5,36.0,32.6,27.0,31.0,27.7,22.0,95,82,70,0.00,40.00,12,6,16,0.10
2014-11-6,43.0,34.8,29.0,33.0,30.4,27.0,95,84,60,0.00,40.00,15,7,17,0.00
2014-11-7,50.0,39.9,35.0,45.0,33.3,23.0,89,77,58,0.00,40.00,31,22,43,0.06
2014-11-8,39.0,33.8,30.0,32.0,24.5,19.0,93,67,55,0.00,40.00,23,13,34,0.01
2014-11-9,29.0,22.4,19.0,19.0,12.2,8.0,82,64,53,0.00,40.00,15,8,20,0.00
2014-11-10,22.0,19.5,17.0,16.0,11.9,8.0,86,72,57,0.00,40.00,19,11,25,0.04
2014-11-11,23.0,18.8,16.0,16.0,11.6,9.0,86,73,59,0.00,40.00,19,13,22,0.01
2014-11-12,24.0,19.5,18.0,18.0,15.1,11.0,89,79,71,0.00,40.00,25,15,32,0.07
2014-11-13,20.0,13.6,6.0,11.0,6.0,0.0,84,72,61,0.00,40.00,18,11,24,0.00
2014-12-5,25.0,15.5,6.0,15.0,9.8,3.0,87,78,61,0.00,40.00,14,7,18,0.00
2014-12-6,25.0,17.0,2.0,19.0,12.3,-1.0,91,80,72,0.00,40.00,19,10,24,0.00
2014-12-7,36.0,31.1,24.0,30.0,26.2,19.0,92,81,76,0.00,40.00,24,16,29,0.01
2014-12-8,28.0,17.9,8.0,22.0,11.7,3.0,88,76,69,0.00,40.00,22,15,32,0.08
2014-12-9,23.0,12.1,1.0,21.0,8.8,-3.0,93,86,81,0.00,40.00,21,12,27,0.00
2014-12-10,30.0,24.1,23.0,26.0,21.0,21.0,92,79,81,0.00,40.00,23,17,30,0.00
2014-12-11,32.0,29.6,26.0,31.0,28.0,25.0,97,92,91,0.00,40.00,21,17,29,0.00